Time;durP1;ratioP1;P1;durP2;ratioP2;P2;SDS_P1;SDS_P2;PMS_P1;PMS_P2;Temp;Humidity;BMP_temperature;BMP_pressure;BME280_temperature;BME280_humidity;BME280_pressure;Samples;Min_cycle;Max_cycle;Signal;HPM_P1;HPM_P2
2021/01/29 00:00:51;;;;;;;;;;;;;;;8.81;70.06;99429.03;4963160;28;7597;-72
2021/01/29 00:03:17;;;;;;;;;;;;;;;8.81;70.70;99426.44;4960063;28;7669;-72
2021/01/29 00:06:04;;;;;;;;;;;;;;;8.76;70.27;99420.31;4962643;28;7914;-72
2021/01/29 00:08:29;;;;;;;;;;;;;;;8.77;70.18;99426.38;4961697;28;10987;-72
2021/01/29 00:10:55;;;;;;;;;;;;;;;8.78;70.33;99416.03;4978066;28;7286;-72
2021/01/29 00:13:21;;;;;;;;;;;;;;;8.75;69.96;99423.78;4973989;28;7072;-72
2021/01/29 00:15:46;;;;;;;;;;;;;;;8.76;70.42;99409.97;4962835;28;7172;-72
2021/01/29 00:18:12;;;;;;;;;;;;;;;8.76;70.72;99412.56;4977053;28;6808;-72
2021/01/29 00:20:38;;;;;;;;;;;;;;;8.72;70.01;99404.75;4960735;28;7247;-72
2021/01/29 00:23:03;;;;;;;;;;;;;;;8.73;70.58;99399.59;4962891;28;6801;-72
2021/01/29 00:25:33;;;;;;;;;;;;;;;8.74;70.71;99390.13;4977650;28;6799;-72
2021/01/29 00:27:59;;;;;;;;;;;;;;;8.74;70.72;99384.94;4992486;28;8913;-72
2021/01/29 00:30:25;;;;;;;;;;;;;;;8.73;70.81;99388.38;4961835;28;7161;-72
2021/01/29 00:32:50;;;;;;;;;;;;;;;8.71;70.44;99379.75;4975484;28;7877;-72
2021/01/29 00:35:16;;;;;;;;;;;;;;;8.71;70.60;99366.78;4976706;28;7290;-72
2021/01/29 00:37:42;;;;;;;;;;;;;;;8.69;70.76;99358.16;4962391;28;7501;-72
2021/01/29 00:40:08;;;;;;;;;;;;;;;8.68;70.55;99353.84;4974941;28;7072;-72
2021/01/29 00:42:34;;;;;;;;;;;;;;;8.69;70.54;99346.09;4961309;28;7467;-72
2021/01/29 00:45:00;;;;;;;;;;;;;;;8.68;70.13;99334.00;4961364;28;7484;-72
2021/01/29 00:47:25;;;;;;;;;;;;;;;8.68;70.23;99343.47;4961185;28;7113;-72
2021/01/29 00:49:51;;;;;;;;;;;;;;;8.67;70.60;99337.44;4961060;28;7280;-72
2021/01/29 00:52:16;;;;;;;;;;;;;;;8.67;70.33;99337.44;4992834;28;6998;-72
2021/01/29 00:54:42;;;;;;;;;;;;;;;8.66;70.70;99333.13;4976176;28;7272;-72
2021/01/29 00:57:09;;;;;;;;;;;;;;;8.66;70.72;99329.66;4976844;28;7219;-72
2021/01/29 00:59:35;;;;;;;;;;;;;;;8.67;70.65;99334.00;4961321;28;7419;-72
2021/01/29 01:02:01;;;;;;;;;;;;;;;8.63;70.67;99325.34;4965966;28;8579;-72
2021/01/29 01:04:26;;;;;;;;;;;;;;;8.65;70.66;99320.16;4966018;28;7053;-72
2021/01/29 01:06:52;;;;;;;;;;;;;;;8.67;70.37;99310.69;4966403;28;7295;-72
2021/01/29 01:09:17;;;;;;;;;;;;;;;8.64;70.62;99303.78;4966074;28;6786;-72
2021/01/29 01:11:43;;;;;;;;;;;;;;;8.64;70.71;99301.19;4964409;28;7061;-72
2021/01/29 01:14:08;;;;;;;;;;;;;;;8.63;70.78;99293.41;4966246;28;7382;-72
2021/01/29 01:16:34;;;;;;;;;;;;;;;8.64;70.37;99290.84;4965382;28;7420;-72
2021/01/29 01:18:59;;;;;;;;;;;;;;;8.62;70.79;99284.78;4964668;28;6809;-72
2021/01/29 01:21:25;;;;;;;;;;;;;;;8.60;70.19;99283.88;4965905;28;7052;-72
2021/01/29 01:23:50;;;;;;;;;;;;;;;8.62;70.79;99282.19;4966409;28;7797;-72
2021/01/29 01:26:16;;;;;;;;;;;;;;;8.62;70.80;99268.41;4966414;28;6958;-72
2021/01/29 01:28:41;;;;;;;;;;;;;;;8.63;70.18;99263.22;4964786;28;7283;-72
2021/01/29 01:31:07;;;;;;;;;;;;;;;8.63;70.52;99252.03;4965099;28;7061;-72
2021/01/29 01:33:32;;;;;;;;;;;;;;;8.64;70.58;99239.09;4980111;28;7077;-72
2021/01/29 01:35:58;;;;;;;;;;;;;;;8.64;70.16;99238.22;4978649;28;6792;-72
2021/01/29 01:38:23;;;;;;;;;;;;;;;8.62;70.10;99221.81;4964579;28;7552;-72
2021/01/29 01:40:49;;;;;;;;;;;;;;;8.62;70.70;99217.50;4964876;28;6784;-72
2021/01/29 01:43:15;;;;;;;;;;;;;;;8.61;70.83;99212.28;4980030;28;7624;-72
2021/01/29 01:45:58;;;;;;;;;;;;;;;8.61;70.62;99197.66;4978668;28;7083;-72
2021/01/29 01:48:28;;;;;;;;;;;;;;;8.62;70.39;99191.63;4994849;28;10938;-72
2021/01/29 01:50:54;;;;;;;;;;;;;;;8.62;70.36;99181.28;4979827;28;7074;-72
2021/01/29 01:53:34;;;;;;;;;;;;;;;8.61;70.30;99170.91;4963990;28;6848;-72
2021/01/29 01:56:37;;;;;;;;;;;;;;;8.60;70.40;99154.50;4994680;28;6816;-72
2021/01/29 01:59:04;;;;;;;;;;;;;;;8.61;70.45;99147.59;4943168;28;12678;-72
2021/01/29 02:01:29;;;;;;;;;;;;;;;8.60;70.41;99146.75;4978972;28;7010;-72
2021/01/29 02:03:55;;;;;;;;;;;;;;;8.60;70.33;99135.53;4978949;28;7759;-72
2021/01/29 02:06:21;;;;;;;;;;;;;;;8.60;70.77;99126.03;4979897;28;6817;-72
2021/01/29 02:08:47;;;;;;;;;;;;;;;8.61;70.55;99125.22;4964516;28;7731;-72
2021/01/29 02:11:13;;;;;;;;;;;;;;;8.60;70.50;99113.09;4977578;28;7212;-72
2021/01/29 02:13:38;;;;;;;;;;;;;;;8.60;70.49;99107.06;4979757;28;7065;-72
2021/01/29 02:16:35;;;;;;;;;;;;;;;8.60;70.57;99099.31;4964357;28;6792;-72
2021/01/29 02:19:37;;;;;;;;;;;;;;;8.60;70.28;99088.94;4962553;28;11270;-72
2021/01/29 02:22:13;;;;;;;;;;;;;;;8.60;70.74;99089.81;4964238;28;11236;-72
2021/01/29 02:25:23;;;;;;;;;;;;;;;8.59;70.56;99090.69;4991885;28;7245;-72
2021/01/29 02:27:54;;;;;;;;;;;;;;;8.60;70.47;99087.22;4979014;28;11262;-72
2021/01/29 02:30:38;;;;;;;;;;;;;;;8.60;70.45;99083.78;4947833;28;11133;-72
2021/01/29 02:33:14;;;;;;;;;;;;;;;8.59;70.44;99079.47;4964235;28;11289;-72
2021/01/29 02:36:14;;;;;;;;;;;;;;;8.59;70.21;99066.53;4979019;28;7179;-72
2021/01/29 02:39:01;;;;;;;;;;;;;;;8.58;70.88;99063.06;4969595;28;12953;-72
2021/01/29 02:41:48;;;;;;;;;;;;;;;8.59;70.45;99054.47;4994380;28;11310;-72
2021/01/29 02:44:37;;;;;;;;;;;;;;;8.62;70.36;99048.47;4964089;28;7500;-72
2021/01/29 02:47:08;;;;;;;;;;;;;;;8.60;70.26;99034.63;4977555;28;11133;-72
2021/01/29 02:49:34;;;;;;;;;;;;;;;8.61;70.45;99031.16;4978178;28;8056;-72
2021/01/29 02:52:05;;;;;;;;;;;;;;;8.58;70.86;99024.25;4963845;28;8024;-72
2021/01/29 02:54:53;;;;;;;;;;;;;;;8.59;70.29;99017.38;4978885;28;7235;-72
2021/01/29 02:57:35;;;;;;;;;;;;;;;8.58;70.41;99002.69;4995353;28;11351;-72
2021/01/29 03:00:10;;;;;;;;;;;;;;;8.59;70.75;98994.09;4962158;28;12360;-72
2021/01/29 03:03:01;;;;;;;;;;;;;;;8.58;70.55;98985.47;4962758;28;7215;-72
2021/01/29 03:05:46;;;;;;;;;;;;;;;8.58;70.59;98972.53;4977029;28;11128;-72
2021/01/29 03:08:28;;;;;;;;;;;;;;;8.59;70.44;98969.06;4977054;28;7348;-72
2021/01/29 03:11:05;;;;;;;;;;;;;;;8.58;70.45;98961.31;4976546;28;11112;-72
2021/01/29 03:13:42;;;;;;;;;;;;;;;8.58;70.50;98954.41;4956117;28;7372;-72
2021/01/29 03:16:22;;;;;;;;;;;;;;;8.59;70.79;98945.78;4975735;28;6830;-72
2021/01/29 03:19:01;;;;;;;;;;;;;;;8.60;70.66;98933.72;4978091;28;11262;-72
2021/01/29 03:21:29;;;;;;;;;;;;;;;8.58;70.44;98928.53;4960975;28;11059;-72
2021/01/29 03:23:56;;;;;;;;;;;;;;;8.59;70.81;98930.25;4976432;28;6819;-72
2021/01/29 03:26:24;;;;;;;;;;;;;;;8.61;70.59;98912.16;4978053;28;7290;-72
2021/01/29 03:28:53;;;;;;;;;;;;;;;8.61;70.55;98906.97;4946477;28;13918;-72
2021/01/29 03:31:18;;;;;;;;;;;;;;;8.60;70.76;98895.75;4960673;28;11066;-72
2021/01/29 03:33:44;;;;;;;;;;;;;;;8.60;70.61;98879.38;4977516;28;7274;-72
2021/01/29 03:36:13;;;;;;;;;;;;;;;8.60;70.59;98884.56;4977290;28;6799;-72
2021/01/29 03:38:44;;;;;;;;;;;;;;;8.60;70.60;98872.47;4989249;28;7061;-72
2021/01/29 03:41:20;;;;;;;;;;;;;;;8.60;70.58;98867.31;4992222;28;7141;-72
2021/01/29 03:44:08;;;;;;;;;;;;;;;8.61;70.31;98868.16;4993504;28;7222;-72
2021/01/29 03:46:48;;;;;;;;;;;;;;;8.59;70.46;98850.06;4962595;28;11277;-72
2021/01/29 03:49:49;;;;;;;;;;;;;;;8.61;70.96;98848.34;4993385;28;7476;-72
2021/01/29 03:52:35;;;;;;;;;;;;;;;8.62;70.73;98839.72;4958346;28;11108;-72
2021/01/29 03:55:03;;;;;;;;;;;;;;;8.60;70.66;98828.50;4974706;28;11227;-72
2021/01/29 03:57:54;;;;;;;;;;;;;;;8.59;70.96;98825.91;4963128;28;6834;-72
2021/01/29 04:00:53;;;;;;;;;;;;;;;8.58;70.61;98817.28;4961497;28;10979;-72
2021/01/29 04:03:29;;;;;;;;;;;;;;;8.58;70.56;98806.94;4911584;28;11541;-72
2021/01/29 04:06:06;;;;;;;;;;;;;;;8.59;70.92;98810.38;4992475;28;11556;-72
2021/01/29 04:08:44;;;;;;;;;;;;;;;8.60;70.60;98817.28;4960379;28;6796;-72
2021/01/29 04:11:11;;;;;;;;;;;;;;;8.59;70.93;98780.19;4988894;28;7039;-72
2021/01/29 04:13:39;;;;;;;;;;;;;;;8.58;70.55;98803.47;4977190;28;7212;-72
2021/01/29 04:16:10;;;;;;;;;;;;;;;8.59;70.80;98780.19;4991311;28;6817;-72
2021/01/29 04:18:42;;;;;;;;;;;;;;;8.61;70.81;98780.19;4977508;28;7283;-72
2021/01/29 04:21:20;;;;;;;;;;;;;;;8.60;70.51;98768.13;4977071;28;7576;-72
2021/01/29 04:24:10;;;;;;;;;;;;;;;8.59;71.05;98756.91;4961633;28;7176;-72
2021/01/29 04:26:42;;;;;;;;;;;;;;;8.62;70.82;98746.59;4961907;28;11199;-72
2021/01/29 04:29:10;;;;;;;;;;;;;;;8.60;70.67;98735.34;4992874;28;7061;-72
2021/01/29 04:31:35;;;;;;;;;;;;;;;8.60;70.35;98719.81;4977183;28;7237;-73
2021/01/29 04:34:06;;;;;;;;;;;;;;;8.62;70.74;98719.84;4991522;28;6925;-72
2021/01/29 04:36:32;;;;;;;;;;;;;;;8.61;70.87;98706.06;4977216;28;7875;-72
2021/01/29 04:39:09;;;;;;;;;;;;;;;8.62;70.69;98699.16;4976674;28;7111;-72
2021/01/29 04:42:04;;;;;;;;;;;;;;;8.61;70.49;98698.28;4992682;28;7232;-72
2021/01/29 04:44:48;;;;;;;;;;;;;;;8.63;70.97;98678.44;4993459;28;11089;-72
2021/01/29 04:47:18;;;;;;;;;;;;;;;8.61;70.45;98672.41;4960712;28;7414;-72
2021/01/29 04:50:06;;;;;;;;;;;;;;;8.63;70.76;98668.09;4961502;28;6898;-72
2021/01/29 04:52:50;;;;;;;;;;;;;;;8.63;70.74;98662.94;4963041;28;11391;-72
2021/01/29 04:55:37;;;;;;;;;;;;;;;8.62;70.78;98656.03;4959017;28;6951;-72
2021/01/29 04:58:14;;;;;;;;;;;;;;;8.62;70.89;98645.69;4959272;28;11088;-72
2021/01/29 05:00:59;;;;;;;;;;;;;;;8.64;70.64;98640.50;4976127;28;7200;-72
2021/01/29 05:03:51;;;;;;;;;;;;;;;8.65;70.59;98631.88;4962094;28;11166;-72
2021/01/29 05:06:29;;;;;;;;;;;;;;;8.64;70.91;98624.97;4960292;28;11171;-72
2021/01/29 05:09:13;;;;;;;;;;;;;;;8.65;70.93;98624.13;4975279;28;12911;-73
2021/01/29 05:11:50;;;;;;;;;;;;;;;8.65;70.35;98619.78;4961104;28;12434;-72
2021/01/29 05:14:43;;;;;;;;;;;;;;;8.66;70.59;98615.47;4976466;28;6867;-72
2021/01/29 05:17:54;;;;;;;;;;;;;;;8.67;70.49;98604.25;4961590;28;11378;-72
2021/01/29 05:20:45;;;;;;;;;;;;;;;8.68;70.21;98601.66;4962578;28;10951;-72
2021/01/29 05:23:35;;;;;;;;;;;;;;;8.69;71.11;98592.19;4992478;28;11385;-72
2021/01/29 05:26:04;;;;;;;;;;;;;;;8.69;70.63;98587.88;4961449;28;11495;-72
2021/01/29 05:28:50;;;;;;;;;;;;;;;8.69;70.66;98579.25;4961292;28;7361;-72
2021/01/29 05:31:34;;;;;;;;;;;;;;;8.69;70.42;98574.94;4950950;28;7243;-73
2021/01/29 05:34:25;;;;;;;;;;;;;;;8.68;70.57;98573.22;4961933;28;11103;-73
2021/01/29 05:37:15;;;;;;;;;;;;;;;8.71;70.57;98574.91;4973342;28;7208;-72
2021/01/29 05:39:59;;;;;;;;;;;;;;;8.71;70.84;98573.19;4961697;28;11132;-73
2021/01/29 05:42:29;;;;;;;;;;;;;;;8.72;70.80;98574.03;4961320;28;11112;-74
2021/01/29 05:45:13;;;;;;;;;;;;;;;8.73;70.46;98586.97;4977430;28;11155;-76
2021/01/29 05:48:16;;;;;;;;;;;;;;;8.74;70.55;98588.69;4965517;28;11210;-73
2021/01/29 05:51:09;;;;;;;;;;;;;;;8.74;70.88;98587.84;4963848;28;11301;-72
2021/01/29 05:53:50;;;;;;;;;;;;;;;8.75;70.93;98589.56;4980509;28;11261;-73
2021/01/29 05:56:37;;;;;;;;;;;;;;;8.75;70.74;98581.78;4996127;28;7354;-72
2021/01/29 05:59:14;;;;;;;;;;;;;;;8.75;70.79;98594.72;4980376;28;12660;-73
2021/01/29 06:02:30;;;;;;;;;;;;;;;8.77;70.32;98601.63;4964532;28;7295;-73
2021/01/29 06:05:15;;;;;;;;;;;;;;;8.80;70.55;98609.38;4941017;28;11169;-74
2021/01/29 06:08:08;;;;;;;;;;;;;;;8.80;70.81;98609.38;4963289;28;11292;-76
2021/01/29 06:10:43;;;;;;;;;;;;;;;8.83;70.84;98609.38;4963597;28;11245;-74
2021/01/29 06:14:07;;;;;;;;;;;;;;;8.84;70.52;98615.41;4995478;28;7251;-75
2021/01/29 06:16:50;;;;;;;;;;;;;;;8.86;70.90;98618.00;4952544;28;12768;-76
2021/01/29 06:19:38;;;;;;;;;;;;;;;8.87;70.72;98614.53;4978702;28;6836;-74
2021/01/29 06:22:34;;;;;;;;;;;;;;;8.89;70.67;98612.81;4972095;28;11170;-77
2021/01/29 06:25:24;;;;;;;;;;;;;;;8.90;70.77;98610.22;4964507;28;11248;-75
2021/01/29 06:28:02;;;;;;;;;;;;;;;8.93;70.58;98609.31;4962663;28;11567;-74
2021/01/29 06:30:58;;;;;;;;;;;;;;;8.94;70.67;98611.91;4980491;28;7294;-74
2021/01/29 06:33:32;;;;;;;;;;;;;;;8.96;70.92;98620.53;4978256;28;11180;-77
2021/01/29 06:36:36;;;;;;;;;;;;;;;8.96;71.04;98630.03;4964786;28;8185;-75
2021/01/29 06:39:13;;;;;;;;;;;;;;;8.98;70.76;98628.28;4948117;28;12182;-74
2021/01/29 06:41:47;;;;;;;;;;;;;;;8.99;71.51;98653.31;4979334;28;11329;-74
2021/01/29 06:44:25;;;;;;;;;;;;;;;8.99;71.36;98656.75;4965584;28;7057;-74
2021/01/29 06:47:08;;;;;;;;;;;;;;;9.00;71.66;98655.03;4946082;28;8014;-74
2021/01/29 06:49:52;;;;;;;;;;;;;;;9.01;71.75;98651.56;4964884;28;10963;-75
2021/01/29 06:52:17;;;;;;;;;;;;;;;9.09;71.58;98675.72;4979080;28;6823;-73
2021/01/29 06:54:42;;;;;;;;;;;;;;;9.17;71.14;98676.53;4964636;28;6958;-74
2021/01/29 06:57:51;;;;;;;;;;;;;;;9.24;71.50;98680.84;4963886;28;7220;-75
2021/01/29 07:00:32;;;;;;;;;;;;;;;9.30;70.97;98683.38;4948179;28;11288;-75
2021/01/29 07:03:02;;;;;;;;;;;;;;;9.35;71.16;98696.31;4959164;28;6864;-74
2021/01/29 07:05:27;;;;;;;;;;;;;;;9.36;70.84;98701.47;4963143;28;8709;-74
2021/01/29 07:08:05;;;;;;;;;;;;;;;9.40;71.52;98699.72;4961172;28;7830;-75
2021/01/29 07:10:59;;;;;;;;;;;;;;;9.43;71.44;98700.59;4962731;28;11045;-74
2021/01/29 07:13:46;;;;;;;;;;;;;;;9.47;71.11;98722.16;4953366;28;13025;-75
2021/01/29 07:16:24;;;;;;;;;;;;;;;9.49;71.03;98689.34;4993855;28;12959;-76
2021/01/29 07:19:26;;;;;;;;;;;;;;;9.51;71.21;98704.88;4962541;28;7317;-76
2021/01/29 07:22:10;;;;;;;;;;;;;;;9.53;71.25;98706.59;4962939;28;10992;-74
2021/01/29 07:24:55;;;;;;;;;;;;;;;9.55;71.54;98720.38;4963035;28;11286;-75
2021/01/29 07:27:35;;;;;;;;;;;;;;;9.57;71.05;98710.88;4963644;28;6892;-75
2021/01/29 07:30:34;;;;;;;;;;;;;;;9.59;71.34;98711.72;4978365;28;11033;-74
2021/01/29 07:33:05;;;;;;;;;;;;;;;9.62;71.27;98722.09;4977949;28;12865;-75
2021/01/29 07:36:08;;;;;;;;;;;;;;;9.63;71.01;98715.19;4963992;28;11176;-74
2021/01/29 07:39:08;;;;;;;;;;;;;;;9.68;70.76;98728.97;4960925;28;11333;-75
2021/01/29 07:41:37;;;;;;;;;;;;;;;9.70;70.63;98725.50;4962764;28;11174;-74
2021/01/29 07:44:21;;;;;;;;;;;;;;;9.73;70.64;98734.97;4978771;28;11220;-74
2021/01/29 07:46:55;;;;;;;;;;;;;;;9.72;71.21;98728.06;4962850;28;10987;-75
2021/01/29 07:49:41;;;;;;;;;;;;;;;9.75;71.15;98733.25;4962249;28;7223;-75
2021/01/29 07:52:27;;;;;;;;;;;;;;;9.80;71.14;98728.03;4994152;28;11126;-76
2021/01/29 07:55:24;;;;;;;;;;;;;;;9.83;71.18;98741.84;4978337;28;7228;-74
2021/01/29 07:57:52;;;;;;;;;;;;;;;9.83;70.90;98739.25;4992739;28;11229;-74
2021/01/29 08:00:46;;;;;;;;;;;;;;;9.87;70.66;98732.31;4962511;28;7200;-76
2021/01/29 08:03:30;;;;;;;;;;;;;;;9.89;71.14;98744.41;4962996;28;12005;-75
2021/01/29 08:06:19;;;;;;;;;;;;;;;9.90;70.56;98748.72;4962357;28;7254;-75
2021/01/29 08:08:53;;;;;;;;;;;;;;;9.88;71.07;98767.75;4975361;28;11369;-75
2021/01/29 08:11:18;;;;;;;;;;;;;;;9.89;71.66;98761.69;4977155;28;7264;-75
2021/01/29 08:14:02;;;;;;;;;;;;;;;9.88;71.22;98771.19;4967330;28;6787;-74
2021/01/29 08:16:27;;;;;;;;;;;;;;;9.88;71.33;98780.72;4962256;28;6820;-74
2021/01/29 08:19:11;;;;;;;;;;;;;;;9.89;71.42;98772.06;4962031;28;6804;-74
2021/01/29 08:21:52;;;;;;;;;;;;;;;9.93;71.74;98786.72;4961703;28;11126;-74
2021/01/29 08:24:55;;;;;;;;;;;;;;;9.94;71.70;98791.03;4993273;28;7788;-74
2021/01/29 08:27:58;;;;;;;;;;;;;;;9.97;70.88;98797.06;4962309;28;13396;-74
2021/01/29 08:30:42;;;;;;;;;;;;;;;10.01;71.64;98795.31;4962008;28;11425;-74
2021/01/29 08:33:35;;;;;;;;;;;;;;;10.02;71.13;98816.06;4992794;28;12988;-75
2021/01/29 08:36:18;;;;;;;;;;;;;;;10.04;71.41;98809.13;4974818;28;6861;-74
2021/01/29 08:39:13;;;;;;;;;;;;;;;10.10;71.20;98828.97;4960772;28;11269;-76
2021/01/29 08:41:53;;;;;;;;;;;;;;;10.13;71.10;98838.47;4959120;28;11095;-74
2021/01/29 08:44:27;;;;;;;;;;;;;;;10.17;71.21;98841.03;4977281;28;6823;-74
2021/01/29 08:47:14;;;;;;;;;;;;;;;10.19;70.80;98830.66;4962473;28;7216;-74
2021/01/29 08:49:56;;;;;;;;;;;;;;;10.21;70.80;98835.00;4985544;28;11150;-75
2021/01/29 08:52:40;;;;;;;;;;;;;;;10.29;70.70;98847.94;4960149;28;6994;-74
2021/01/29 08:55:19;;;;;;;;;;;;;;;10.29;71.14;98848.78;4974567;28;12224;-74
2021/01/29 08:58:16;;;;;;;;;;;;;;;10.37;70.85;98843.53;4960943;28;11231;-76
2021/01/29 09:00:41;;;;;;;;;;;;;;;10.40;70.49;98832.28;4976813;28;12804;-74
2021/01/29 09:03:23;;;;;;;;;;;;;;;10.45;70.53;98852.16;4977733;28;7247;-74
2021/01/29 09:05:49;;;;;;;;;;;;;;;10.48;70.22;98841.75;4962181;28;11244;-76
2021/01/29 09:08:17;;;;;;;;;;;;;;;10.53;69.64;98860.75;4945602;28;7136;-74
2021/01/29 09:11:05;;;;;;;;;;;;;;;10.54;69.60;98859.88;4973891;28;6823;-75
2021/01/29 09:13:32;;;;;;;;;;;;;;;10.57;69.75;98859.84;4974987;28;6855;-75
2021/01/29 09:16:09;;;;;;;;;;;;;;;10.62;69.54;98871.06;4975555;28;7303;-74
2021/01/29 09:18:42;;;;;;;;;;;;;;;10.66;68.67;98867.56;4992648;28;11180;-73
2021/01/29 09:21:12;;;;;;;;;;;;;;;10.71;69.59;98869.28;4959636;28;11148;-75
2021/01/29 09:23:53;;;;;;;;;;;;;;;10.74;68.64;98887.41;4980068;28;11801;-74
2021/01/29 09:26:56;;;;;;;;;;;;;;;10.78;69.34;98878.72;4965762;28;11098;-75
2021/01/29 09:29:24;;;;;;;;;;;;;;;10.86;68.39;98887.34;4965388;28;11204;-74
2021/01/29 09:31:55;;;;;;;;;;;;;;;10.89;68.62;98902.88;4980346;28;6845;-75
2021/01/29 09:34:23;;;;;;;;;;;;;;;10.95;68.30;98892.44;4979369;28;6788;-74
2021/01/29 09:36:51;;;;;;;;;;;;;;;11.03;68.11;98897.59;4949243;28;7091;-74
2021/01/29 09:39:27;;;;;;;;;;;;;;;11.10;68.04;98901.84;4965430;28;6897;-75
2021/01/29 09:41:59;;;;;;;;;;;;;;;11.23;67.47;98900.88;4981230;28;8558;-75
2021/01/29 09:44:27;;;;;;;;;;;;;;;11.36;66.64;98886.03;4980543;28;8773;-74
2021/01/29 09:46:54;;;;;;;;;;;;;;;11.46;66.26;98911.06;4980164;28;8408;-74
2021/01/29 09:49:22;;;;;;;;;;;;;;;11.48;66.34;98920.56;4963440;28;7471;-75
2021/01/29 09:51:59;;;;;;;;;;;;;;;11.59;66.59;98929.09;4995597;28;7213;-74
2021/01/29 09:54:40;;;;;;;;;;;;;;;11.72;65.55;98927.25;4962258;28;7387;-75
2021/01/29 09:57:10;;;;;;;;;;;;;;;11.81;65.68;98927.19;4963165;28;7009;-74
2021/01/29 09:59:38;;;;;;;;;;;;;;;11.85;65.05;98918.47;4995926;28;11332;-74
2021/01/29 10:02:50;;;;;;;;;;;;;;;11.94;65.51;98937.44;4980296;28;6990;-75
2021/01/29 10:05:46;;;;;;;;;;;;;;;11.84;65.33;98934.97;4940187;28;11078;-75
2021/01/29 10:08:41;;;;;;;;;;;;;;;11.76;65.66;98928.06;4939611;28;11226;-75
2021/01/29 10:11:11;;;;;;;;;;;;;;;11.83;65.35;98938.44;4970825;28;11192;-75
2021/01/29 10:14:05;;;;;;;;;;;;;;;11.92;65.35;98947.03;4958771;28;8882;-74
2021/01/29 10:16:44;;;;;;;;;;;;;;;12.10;65.28;98949.41;4966050;28;12172;-75
2021/01/29 10:19:17;;;;;;;;;;;;;;;12.22;64.57;98943.22;4954146;28;7344;-75
2021/01/29 10:21:58;;;;;;;;;;;;;;;12.19;65.02;98957.97;4962621;28;12973;-74
2021/01/29 10:24:23;;;;;;;;;;;;;;;12.23;64.25;98958.81;4965141;28;11125;-75
2021/01/29 10:26:57;;;;;;;;;;;;;;;12.26;64.19;98942.28;4965029;28;6953;-75
2021/01/29 10:29:23;;;;;;;;;;;;;;;12.23;64.89;98970.97;4963337;28;7006;-75
2021/01/29 10:32:17;;;;;;;;;;;;;;;12.31;64.55;98958.69;4947332;28;7298;-75
2021/01/29 10:34:48;;;;;;;;;;;;;;;12.40;63.74;98964.63;4955585;28;12330;-75
2021/01/29 10:37:31;;;;;;;;;;;;;;;12.65;63.29;98974.75;4961840;28;11234;-75
2021/01/29 10:40:00;;;;;;;;;;;;;;;12.73;63.40;98970.28;4959946;28;11154;-75
2021/01/29 10:42:36;;;;;;;;;;;;;;;12.84;62.53;98975.38;4963785;28;6820;-75
2021/01/29 10:45:02;;;;;;;;;;;;;;;12.88;62.37;98961.41;4967635;28;7432;-75
2021/01/29 10:47:40;;;;;;;;;;;;;;;12.94;62.36;98951.75;4973252;28;7000;-74
2021/01/29 10:50:08;;;;;;;;;;;;;;;13.06;61.83;98968.94;4965961;28;7894;-75
2021/01/29 10:52:39;;;;;;;;;;;;;;;13.08;62.09;98973.25;4964842;28;7088;-75
2021/01/29 10:55:26;;;;;;;;;;;;;;;13.17;61.75;98968.78;4964507;28;6803;-74
2021/01/29 10:58:20;;;;;;;;;;;;;;;13.25;62.01;98974.78;4960209;28;11000;-75
2021/01/29 11:00:51;;;;;;;;;;;;;;;13.25;61.68;98978.25;4965916;28;11419;-74
2021/01/29 11:03:18;;;;;;;;;;;;;;;13.36;61.68;98967.63;4962166;28;11004;-74
2021/01/29 11:05:45;;;;;;;;;;;;;;;13.37;61.82;98975.41;4952311;28;12233;-74
2021/01/29 11:08:29;;;;;;;;;;;;;;;13.30;61.85;98968.59;4977707;28;7137;-75
2021/01/29 11:11:09;;;;;;;;;;;;;;;13.33;61.78;98972.91;4978286;28;11385;-74
2021/01/29 11:14:00;;;;;;;;;;;;;;;13.26;61.39;98981.72;4979123;28;7092;-75
2021/01/29 11:16:52;;;;;;;;;;;;;;;13.38;61.98;98978.88;4958170;28;11149;-75
2021/01/29 11:19:30;;;;;;;;;;;;;;;13.50;61.00;98983.91;4960253;28;11035;-75
2021/01/29 11:22:14;;;;;;;;;;;;;;;13.44;61.23;98986.63;4962654;28;11103;-75
2021/01/29 11:24:45;;;;;;;;;;;;;;;13.46;61.60;98976.19;4992780;28;8567;-75
2021/01/29 11:27:25;;;;;;;;;;;;;;;13.60;61.17;98989.81;4963582;28;7242;-75
2021/01/29 11:30:05;;;;;;;;;;;;;;;13.68;60.42;98978.38;4978916;28;11570;-75
2021/01/29 11:32:36;;;;;;;;;;;;;;;13.54;61.10;98976.88;4963731;28;7235;-75
2021/01/29 11:35:24;;;;;;;;;;;;;;;13.57;60.85;98969.88;4978145;28;7832;-75
2021/01/29 11:37:55;;;;;;;;;;;;;;;13.70;60.32;98971.38;4962567;28;11064;-75
2021/01/29 11:40:32;;;;;;;;;;;;;;;13.79;60.73;98965.13;4961912;28;12464;-75
2021/01/29 11:43:07;;;;;;;;;;;;;;;13.68;60.83;98972.31;4993664;28;7271;-75
2021/01/29 11:45:37;;;;;;;;;;;;;;;13.60;61.06;98982.84;4961757;28;7007;-75
2021/01/29 11:48:02;;;;;;;;;;;;;;;13.71;60.86;98964.41;4977756;28;7231;-74
2021/01/29 11:50:29;;;;;;;;;;;;;;;13.75;60.42;98962.63;4961957;28;7941;-70
2021/01/29 11:53:00;;;;;;;;;;;;;;;13.68;60.78;98954.03;4989602;28;7207;-70
2021/01/29 11:55:28;;;;;;;;;;;;;;;13.62;61.04;98970.69;4977821;28;7116;-70
2021/01/29 11:58:12;;;;;;;;;;;;;;;13.60;61.42;98972.41;4978742;28;6804;-71
2021/01/29 12:00:55;;;;;;;;;;;;;;;13.76;61.00;98956.50;4977448;28;7035;-71
2021/01/29 12:03:40;;;;;;;;;;;;;;;13.86;60.43;98973.72;4976694;28;11424;-71
2021/01/29 12:06:12;;;;;;;;;;;;;;;13.74;60.82;98985.22;4992520;28;7184;-71
2021/01/29 12:08:38;;;;;;;;;;;;;;;13.87;60.68;98971.09;4993953;28;6878;-71
2021/01/29 12:11:41;;;;;;;;;;;;;;;13.97;60.82;98979.59;4963556;28;7234;-71
2021/01/29 12:14:18;;;;;;;;;;;;;;;14.21;59.75;98976.50;4962503;28;11046;-71
2021/01/29 12:16:44;;;;;;;;;;;;;;;14.09;60.35;98960.25;4991937;28;7266;-71
2021/01/29 12:19:10;;;;;;;;;;;;;;;14.18;60.00;98960.91;4962031;28;8545;-71
2021/01/29 12:21:46;;;;;;;;;;;;;;;14.37;59.34;98947.47;4978709;28;7111;-71
2021/01/29 12:24:35;;;;;;;;;;;;;;;14.56;59.34;98946.22;4975149;28;8870;-72
2021/01/29 12:27:21;;;;;;;;;;;;;;;14.93;58.57;98942.78;4962183;28;11139;-72
2021/01/29 12:30:03;;;;;;;;;;;;;;;14.93;58.77;98943.66;4974933;28;7423;-71
2021/01/29 12:32:44;;;;;;;;;;;;;;;15.05;58.26;98942.53;4976835;28;11104;-70
2021/01/29 12:35:22;;;;;;;;;;;;;;;15.04;58.55;98941.66;4975214;28;6816;-71
2021/01/29 12:38:35;;;;;;;;;;;;;;;14.96;58.86;98940.97;4944759;28;6884;-77
2021/01/29 12:41:21;;;;;;;;;;;;;;;14.67;59.64;98938.16;4957176;28;11394;-76
2021/01/29 12:44:07;;;;;;;;;;;;;;;14.51;60.14;98935.03;4977531;28;7216;-71
2021/01/29 12:46:42;;;;;;;;;;;;;;;14.33;60.41;98928.41;4960764;28;11135;-71
2021/01/29 12:49:10;;;;;;;;;;;;;;;14.23;61.13;98940.81;4989539;28;7317;-71
2021/01/29 12:52:06;;;;;;;;;;;;;;;14.11;61.13;98959.31;4992336;28;6792;-71
2021/01/29 12:54:40;;;;;;;;;;;;;;;14.06;61.84;98965.53;4963152;28;10960;-71
2021/01/29 12:57:16;;;;;;;;;;;;;;;14.13;61.08;98978.41;4980229;28;6795;-72
2021/01/29 12:59:45;;;;;;;;;;;;;;;14.17;60.86;98966.16;4980343;28;7660;-72
2021/01/29 13:02:32;;;;;;;;;;;;;;;14.30;60.62;98962.41;4966471;28;7438;-72
2021/01/29 13:05:03;;;;;;;;;;;;;;;14.33;60.53;98962.34;4964491;28;11203;-72
2021/01/29 13:07:30;;;;;;;;;;;;;;;14.38;60.49;98972.69;4962806;28;7053;-72
2021/01/29 13:10:09;;;;;;;;;;;;;;;14.56;59.58;98974.97;4980650;28;6812;-72
2021/01/29 13:13:04;;;;;;;;;;;;;;;14.78;59.07;98960.53;4980799;28;11157;-71
2021/01/29 13:15:56;;;;;;;;;;;;;;;14.97;58.79;98944.44;4975798;28;11295;-71
2021/01/29 13:18:24;;;;;;;;;;;;;;;20.35;45.47;98942.69;4979382;28;11119;-70
2021/01/29 13:20:55;;;;;;;;;;;;;;;20.54;44.29;98931.31;4981173;28;7338;-72
2021/01/29 13:23:32;;;;;;;;;;;;;;;17.40;52.00;98944.56;4964064;28;6800;-76
2021/01/29 13:26:03;;;;;;;;;;;;;;;17.30;52.77;98940.56;4966025;28;11240;-76
2021/01/29 13:28:30;;;;;;;;;;;;;;;17.29;52.83;98937.06;4962250;28;7241;-76
2021/01/29 13:31:10;;;;;;;;;;;;;;;16.98;53.89;98946.81;4980630;28;7076;-71
2021/01/29 13:33:36;;;;;;;;;;;;;;;17.85;51.17;98934.34;4981232;28;10980;-72
2021/01/29 13:36:07;;;;;;;;;;;;;;;16.54;54.87;98935.91;4979914;28;6807;-71
2021/01/29 13:38:34;;;;;;;;;;;;;;;16.41;55.48;98934.53;4980050;28;7644;-71
2021/01/29 13:41:14;;;;;;;;;;;;;;;16.27;56.00;98918.41;4995232;28;7092;-70
2021/01/29 13:43:41;;;;;;;;;;;;;;;16.20;56.10;98922.06;4966018;28;8404;-70
2021/01/29 13:46:27;;;;;;;;;;;;;;;15.94;56.75;98926.28;4995987;28;7262;-71
2021/01/29 13:49:30;;;;;;;;;;;;;;;15.60;57.69;98921.09;4994740;28;11764;-73
2021/01/29 13:51:56;;;;;;;;;;;;;;;15.53;58.31;98915.13;4961804;28;11109;-76
2021/01/29 13:54:33;;;;;;;;;;;;;;;15.32;58.57;98931.38;4979611;28;12360;-74
2021/01/29 13:57:17;;;;;;;;;;;;;;;15.16;59.28;98923.06;4972343;28;11328;-74